sensor_id;sensor_type;location;lat;lon;timestamp;temperature;humidity
23562;DHT22;11959;49.418;8.728;2022-11-12T00:01:12;7.80;99.90
23562;DHT22;11959;49.418;8.728;2022-11-12T00:03:38;7.80;99.90
23562;DHT22;11959;49.418;8.728;2022-11-12T00:06:04;7.80;99.90
23562;DHT22;11959;49.418;8.728;2022-11-12T00:08:29;7.80;99.90
23562;DHT22;11959;49.418;8.728;2022-11-12T00:10:55;7.80;99.90
23562;DHT22;11959;49.418;8.728;2022-11-12T00:13:21;7.70;99.90
23562;DHT22;11959;49.418;8.728;2022-11-12T00:15:46;7.80;99.90
23562;DHT22;11959;49.418;8.728;2022-11-12T00:18:12;7.80;99.90
23562;DHT22;11959;49.418;8.728;2022-11-12T00:20:38;7.80;99.90
23562;DHT22;11959;49.418;8.728;2022-11-12T00:23:03;7.80;99.90
23562;DHT22;11959;49.418;8.728;2022-11-12T00:25:29;7.80;99.90
23562;DHT22;11959;49.418;8.728;2022-11-12T00:28:03;7.70;99.90
23562;DHT22;11959;49.418;8.728;2022-11-12T00:30:29;7.70;99.90
23562;DHT22;11959;49.418;8.728;2022-11-12T00:32:55;7.70;99.90
23562;DHT22;11959;49.418;8.728;2022-11-12T00:35:20;7.70;99.90
23562;DHT22;11959;49.418;8.728;2022-11-12T00:37:46;7.60;99.90
23562;DHT22;11959;49.418;8.728;2022-11-12T00:40:12;7.60;99.90
23562;DHT22;11959;49.418;8.728;2022-11-12T00:42:37;7.60;99.90
23562;DHT22;11959;49.418;8.728;2022-11-12T00:45:03;7.60;99.90
23562;DHT22;11959;49.418;8.728;2022-11-12T00:47:29;7.50;99.90
23562;DHT22;11959;49.418;8.728;2022-11-12T00:49:54;7.50;99.90
23562;DHT22;11959;49.418;8.728;2022-11-12T00:52:20;7.60;99.90
23562;DHT22;11959;49.418;8.728;2022-11-12T00:54:47;7.60;99.90
23562;DHT22;11959;49.418;8.728;2022-11-12T00:57:13;7.60;99.90
23562;DHT22;11959;49.418;8.728;2022-11-12T00:59:38;7.60;99.90
23562;DHT22;11959;49.418;8.728;2022-11-12T01:02:04;7.60;99.90
23562;DHT22;11959;49.418;8.728;2022-11-12T01:04:30;7.70;99.90
23562;DHT22;11959;49.418;8.728;2022-11-12T01:06:55;7.70;99.90
23562;DHT22;11959;49.418;8.728;2022-11-12T01:09:21;7.60;99.90
23562;DHT22;11959;49.418;8.728;2022-11-12T01:11:46;7.60;99.90
23562;DHT22;11959;49.418;8.728;2022-11-12T01:14:13;7.60;99.90
23562;DHT22;11959;49.418;8.728;2022-11-12T01:16:39;7.70;99.90
23562;DHT22;11959;49.418;8.728;2022-11-12T01:19:08;7.60;99.90
23562;DHT22;11959;49.418;8.728;2022-11-12T01:21:38;7.60;99.90
23562;DHT22;11959;49.418;8.728;2022-11-12T01:24:04;7.60;99.90
23562;DHT22;11959;49.418;8.728;2022-11-12T01:26:30;7.60;99.90
23562;DHT22;11959;49.418;8.728;2022-11-12T01:28:56;7.70;99.90
23562;DHT22;11959;49.418;8.728;2022-11-12T01:31:31;7.70;99.90
23562;DHT22;11959;49.418;8.728;2022-11-12T01:33:59;7.70;99.90
23562;DHT22;11959;49.418;8.728;2022-11-12T01:36:26;7.70;99.90
23562;DHT22;11959;49.418;8.728;2022-11-12T01:38:54;7.70;99.90
23562;DHT22;11959;49.418;8.728;2022-11-12T01:41:22;7.70;99.90
23562;DHT22;11959;49.418;8.728;2022-11-12T01:46:39;7.70;99.90
23562;DHT22;11959;49.418;8.728;2022-11-12T01:49:11;7.70;99.90
23562;DHT22;11959;49.418;8.728;2022-11-12T01:51:41;7.70;99.90
23562;DHT22;11959;49.418;8.728;2022-11-12T01:54:10;7.70;99.90
23562;DHT22;11959;49.418;8.728;2022-11-12T01:56:38;7.80;99.90
23562;DHT22;11959;49.418;8.728;2022-11-12T01:59:07;7.70;99.90
23562;DHT22;11959;49.418;8.728;2022-11-12T02:01:36;7.80;99.90
23562;DHT22;11959;49.418;8.728;2022-11-12T02:04:03;7.70;99.90
23562;DHT22;11959;49.418;8.728;2022-11-12T02:06:29;7.70;99.90
23562;DHT22;11959;49.418;8.728;2022-11-12T02:08:56;7.80;99.90
23562;DHT22;11959;49.418;8.728;2022-11-12T02:11:22;7.70;99.90
23562;DHT22;11959;49.418;8.728;2022-11-12T02:13:50;7.80;99.90
23562;DHT22;11959;49.418;8.728;2022-11-12T02:19:04;7.70;99.90
23562;DHT22;11959;49.418;8.728;2022-11-12T02:21:31;7.70;99.90
23562;DHT22;11959;49.418;8.728;2022-11-12T02:24:02;7.70;99.90
23562;DHT22;11959;49.418;8.728;2022-11-12T02:26:33;7.70;99.90
23562;DHT22;11959;49.418;8.728;2022-11-12T02:29:00;7.70;99.90
23562;DHT22;11959;49.418;8.728;2022-11-12T02:31:25;7.70;99.90
23562;DHT22;11959;49.418;8.728;2022-11-12T02:33:51;7.70;99.90
23562;DHT22;11959;49.418;8.728;2022-11-12T02:36:17;7.70;99.90
23562;DHT22;11959;49.418;8.728;2022-11-12T02:38:43;7.80;99.90
23562;DHT22;11959;49.418;8.728;2022-11-12T02:41:08;7.80;99.90
23562;DHT22;11959;49.418;8.728;2022-11-12T02:43:34;7.70;99.90
23562;DHT22;11959;49.418;8.728;2022-11-12T02:46:00;7.70;99.90
23562;DHT22;11959;49.418;8.728;2022-11-12T02:48:25;7.70;99.90
23562;DHT22;11959;49.418;8.728;2022-11-12T02:50:51;7.80;99.90
23562;DHT22;11959;49.418;8.728;2022-11-12T02:53:17;7.80;99.90
23562;DHT22;11959;49.418;8.728;2022-11-12T02:55:43;7.70;99.90
23562;DHT22;11959;49.418;8.728;2022-11-12T02:58:08;7.70;99.90
23562;DHT22;11959;49.418;8.728;2022-11-12T03:00:34;7.70;99.90
23562;DHT22;11959;49.418;8.728;2022-11-12T03:03:00;7.70;99.90
23562;DHT22;11959;49.418;8.728;2022-11-12T03:05:31;7.70;99.90
23562;DHT22;11959;49.418;8.728;2022-11-12T03:07:58;7.70;99.90
23562;DHT22;11959;49.418;8.728;2022-11-12T03:10:25;7.70;99.90
23562;DHT22;11959;49.418;8.728;2022-11-12T03:12:51;7.70;99.90
23562;DHT22;11959;49.418;8.728;2022-11-12T03:15:17;7.70;99.90
23562;DHT22;11959;49.418;8.728;2022-11-12T03:17:43;7.70;99.90
23562;DHT22;11959;49.418;8.728;2022-11-12T03:20:10;7.70;99.90
23562;DHT22;11959;49.418;8.728;2022-11-12T03:22:36;7.70;99.90
23562;DHT22;11959;49.418;8.728;2022-11-12T03:25:02;7.70;99.90
23562;DHT22;11959;49.418;8.728;2022-11-12T03:27:28;7.70;99.90
23562;DHT22;11959;49.418;8.728;2022-11-12T03:29:53;7.70;99.90
23562;DHT22;11959;49.418;8.728;2022-11-12T03:32:19;7.70;99.90
23562;DHT22;11959;49.418;8.728;2022-11-12T03:34:45;7.70;99.90
23562;DHT22;11959;49.418;8.728;2022-11-12T03:37:10;7.70;99.90
23562;DHT22;11959;49.418;8.728;2022-11-12T03:39:36;7.60;99.90
23562;DHT22;11959;49.418;8.728;2022-11-12T03:42:02;7.70;99.90
23562;DHT22;11959;49.418;8.728;2022-11-12T03:44:28;7.60;99.90
23562;DHT22;11959;49.418;8.728;2022-11-12T03:46:53;7.60;99.90
23562;DHT22;11959;49.418;8.728;2022-11-12T03:49:19;7.60;99.90
23562;DHT22;11959;49.418;8.728;2022-11-12T03:51:44;7.60;99.90
23562;DHT22;11959;49.418;8.728;2022-11-12T03:54:11;7.60;99.90
23562;DHT22;11959;49.418;8.728;2022-11-12T03:56:37;7.60;99.90
23562;DHT22;11959;49.418;8.728;2022-11-12T03:59:02;7.60;99.90
23562;DHT22;11959;49.418;8.728;2022-11-12T04:01:28;7.60;99.90
23562;DHT22;11959;49.418;8.728;2022-11-12T04:03:54;7.60;99.90
23562;DHT22;11959;49.418;8.728;2022-11-12T04:06:19;7.50;99.90
23562;DHT22;11959;49.418;8.728;2022-11-12T04:09:04;7.50;99.90
23562;DHT22;11959;49.418;8.728;2022-11-12T04:11:29;7.50;99.90
23562;DHT22;11959;49.418;8.728;2022-11-12T04:13:55;7.50;99.90
23562;DHT22;11959;49.418;8.728;2022-11-12T04:16:21;7.50;99.90
23562;DHT22;11959;49.418;8.728;2022-11-12T04:19:09;7.40;99.90
23562;DHT22;11959;49.418;8.728;2022-11-12T04:22:03;7.40;99.90
23562;DHT22;11959;49.418;8.728;2022-11-12T04:24:35;7.40;99.90
23562;DHT22;11959;49.418;8.728;2022-11-12T04:27:37;7.40;99.90
23562;DHT22;11959;49.418;8.728;2022-11-12T04:30:03;7.30;99.90
23562;DHT22;11959;49.418;8.728;2022-11-12T04:32:48;7.30;99.90
23562;DHT22;11959;49.418;8.728;2022-11-12T04:35:15;7.40;99.90
23562;DHT22;11959;49.418;8.728;2022-11-12T04:37:41;7.40;99.90
23562;DHT22;11959;49.418;8.728;2022-11-12T04:42:58;7.40;99.90
23562;DHT22;11959;49.418;8.728;2022-11-12T04:45:44;7.30;99.90
23562;DHT22;11959;49.418;8.728;2022-11-12T04:48:10;7.30;99.90
23562;DHT22;11959;49.418;8.728;2022-11-12T04:50:36;7.30;99.90
23562;DHT22;11959;49.418;8.728;2022-11-12T04:53:02;7.30;99.90
23562;DHT22;11959;49.418;8.728;2022-11-12T04:55:28;7.20;99.90
23562;DHT22;11959;49.418;8.728;2022-11-12T04:57:53;7.20;99.90
23562;DHT22;11959;49.418;8.728;2022-11-12T05:00:19;7.20;99.90
23562;DHT22;11959;49.418;8.728;2022-11-12T05:02:45;7.20;99.90
23562;DHT22;11959;49.418;8.728;2022-11-12T05:05:10;7.20;99.90
23562;DHT22;11959;49.418;8.728;2022-11-12T05:07:36;7.20;99.90
23562;DHT22;11959;49.418;8.728;2022-11-12T05:10:02;7.20;99.90
23562;DHT22;11959;49.418;8.728;2022-11-12T05:12:27;7.10;99.90
23562;DHT22;11959;49.418;8.728;2022-11-12T05:14:53;7.10;99.90
23562;DHT22;11959;49.418;8.728;2022-11-12T05:17:18;7.00;99.90
23562;DHT22;11959;49.418;8.728;2022-11-12T05:19:44;7.10;99.90
23562;DHT22;11959;49.418;8.728;2022-11-12T05:22:10;7.10;99.90
23562;DHT22;11959;49.418;8.728;2022-11-12T05:24:38;7.00;99.90
23562;DHT22;11959;49.418;8.728;2022-11-12T05:27:09;6.90;99.90
23562;DHT22;11959;49.418;8.728;2022-11-12T05:29:35;7.00;99.90
23562;DHT22;11959;49.418;8.728;2022-11-12T05:32:01;7.00;99.90
23562;DHT22;11959;49.418;8.728;2022-11-12T05:34:27;7.00;99.90
23562;DHT22;11959;49.418;8.728;2022-11-12T05:36:53;6.90;99.90
23562;DHT22;11959;49.418;8.728;2022-11-12T05:39:19;7.00;99.90
23562;DHT22;11959;49.418;8.728;2022-11-12T05:41:44;6.90;99.90
23562;DHT22;11959;49.418;8.728;2022-11-12T05:44:10;6.90;99.90
23562;DHT22;11959;49.418;8.728;2022-11-12T05:46:36;6.80;99.90
23562;DHT22;11959;49.418;8.728;2022-11-12T05:49:01;6.80;99.90
23562;DHT22;11959;49.418;8.728;2022-11-12T05:51:27;6.90;99.90
23562;DHT22;11959;49.418;8.728;2022-11-12T05:53:53;6.90;99.90
23562;DHT22;11959;49.418;8.728;2022-11-12T05:56:18;6.80;99.90
23562;DHT22;11959;49.418;8.728;2022-11-12T05:58:44;6.80;99.90
23562;DHT22;11959;49.418;8.728;2022-11-12T06:01:10;6.80;99.90
23562;DHT22;11959;49.418;8.728;2022-11-12T06:03:35;6.80;99.90
23562;DHT22;11959;49.418;8.728;2022-11-12T06:06:01;6.80;99.90
23562;DHT22;11959;49.418;8.728;2022-11-12T06:08:27;6.80;99.90
23562;DHT22;11959;49.418;8.728;2022-11-12T06:10:53;6.80;99.90
23562;DHT22;11959;49.418;8.728;2022-11-12T06:13:23;6.80;99.90
23562;DHT22;11959;49.418;8.728;2022-11-12T06:15:53;6.80;99.90
23562;DHT22;11959;49.418;8.728;2022-11-12T06:18:20;6.80;99.90
23562;DHT22;11959;49.418;8.728;2022-11-12T06:20:46;6.80;99.90
23562;DHT22;11959;49.418;8.728;2022-11-12T06:23:32;6.70;99.90
23562;DHT22;11959;49.418;8.728;2022-11-12T06:25:57;6.70;99.90
23562;DHT22;11959;49.418;8.728;2022-11-12T06:28:23;6.70;99.90
23562;DHT22;11959;49.418;8.728;2022-11-12T06:30:49;6.70;99.90
23562;DHT22;11959;49.418;8.728;2022-11-12T06:33:15;6.70;99.90
23562;DHT22;11959;49.418;8.728;2022-11-12T06:35:40;6.70;99.90
23562;DHT22;11959;49.418;8.728;2022-11-12T06:38:06;6.80;99.90
23562;DHT22;11959;49.418;8.728;2022-11-12T06:40:32;6.80;99.90
23562;DHT22;11959;49.418;8.728;2022-11-12T06:42:58;6.80;99.90
23562;DHT22;11959;49.418;8.728;2022-11-12T06:45:24;6.80;99.90
23562;DHT22;11959;49.418;8.728;2022-11-12T06:47:50;6.70;99.90
23562;DHT22;11959;49.418;8.728;2022-11-12T06:50:15;6.70;99.90
23562;DHT22;11959;49.418;8.728;2022-11-12T06:52:41;6.70;99.90
23562;DHT22;11959;49.418;8.728;2022-11-12T06:55:07;6.80;99.90
23562;DHT22;11959;49.418;8.728;2022-11-12T06:57:35;6.80;99.90
23562;DHT22;11959;49.418;8.728;2022-11-12T07:00:01;6.70;99.90
23562;DHT22;11959;49.418;8.728;2022-11-12T07:02:26;6.80;99.90
23562;DHT22;11959;49.418;8.728;2022-11-12T07:04:52;6.80;99.90
23562;DHT22;11959;49.418;8.728;2022-11-12T07:07:18;6.80;99.90
23562;DHT22;11959;49.418;8.728;2022-11-12T07:09:43;6.80;99.90
23562;DHT22;11959;49.418;8.728;2022-11-12T07:12:09;6.80;99.90
23562;DHT22;11959;49.418;8.728;2022-11-12T07:14:34;6.80;99.90
23562;DHT22;11959;49.418;8.728;2022-11-12T07:17:00;6.80;99.90
23562;DHT22;11959;49.418;8.728;2022-11-12T07:19:26;6.80;99.90
23562;DHT22;11959;49.418;8.728;2022-11-12T07:21:51;6.80;99.90
23562;DHT22;11959;49.418;8.728;2022-11-12T07:24:17;6.80;99.90
23562;DHT22;11959;49.418;8.728;2022-11-12T07:26:43;6.80;99.90
23562;DHT22;11959;49.418;8.728;2022-11-12T07:29:08;6.80;99.90
23562;DHT22;11959;49.418;8.728;2022-11-12T07:31:34;6.80;99.90
23562;DHT22;11959;49.418;8.728;2022-11-12T07:34:00;6.80;99.90
23562;DHT22;11959;49.418;8.728;2022-11-12T07:36:25;6.70;99.90
23562;DHT22;11959;49.418;8.728;2022-11-12T07:38:52;6.70;99.90
23562;DHT22;11959;49.418;8.728;2022-11-12T07:41:23;6.70;99.90
23562;DHT22;11959;49.418;8.728;2022-11-12T07:43:50;6.70;99.90
23562;DHT22;11959;49.418;8.728;2022-11-12T07:46:18;6.80;99.90
23562;DHT22;11959;49.418;8.728;2022-11-12T07:48:45;6.80;99.90
23562;DHT22;11959;49.418;8.728;2022-11-12T07:51:16;6.80;99.90
23562;DHT22;11959;49.418;8.728;2022-11-12T07:53:43;6.80;99.90
23562;DHT22;11959;49.418;8.728;2022-11-12T07:56:14;6.80;99.90
23562;DHT22;11959;49.418;8.728;2022-11-12T07:58:41;6.70;99.90
23562;DHT22;11959;49.418;8.728;2022-11-12T08:01:32;6.70;99.90
23562;DHT22;11959;49.418;8.728;2022-11-12T08:03:59;6.70;99.90
23562;DHT22;11959;49.418;8.728;2022-11-12T08:06:26;6.80;99.90
23562;DHT22;11959;49.418;8.728;2022-11-12T08:08:52;6.80;99.90
23562;DHT22;11959;49.418;8.728;2022-11-12T08:11:18;6.90;99.90
23562;DHT22;11959;49.418;8.728;2022-11-12T08:13:44;6.90;99.90
23562;DHT22;11959;49.418;8.728;2022-11-12T08:16:10;6.90;99.90
23562;DHT22;11959;49.418;8.728;2022-11-12T08:18:35;6.90;99.90
23562;DHT22;11959;49.418;8.728;2022-11-12T08:21:03;6.90;99.90
23562;DHT22;11959;49.418;8.728;2022-11-12T08:23:29;7.00;99.90
23562;DHT22;11959;49.418;8.728;2022-11-12T08:26:03;7.00;99.90
23562;DHT22;11959;49.418;8.728;2022-11-12T08:28:31;7.00;99.90
23562;DHT22;11959;49.418;8.728;2022-11-12T08:30:57;7.00;99.90
23562;DHT22;11959;49.418;8.728;2022-11-12T08:33:23;7.10;99.90
23562;DHT22;11959;49.418;8.728;2022-11-12T08:35:49;7.10;99.90
23562;DHT22;11959;49.418;8.728;2022-11-12T08:38:14;7.10;99.90
23562;DHT22;11959;49.418;8.728;2022-11-12T08:40:41;7.10;99.90
23562;DHT22;11959;49.418;8.728;2022-11-12T08:43:08;7.10;99.90
23562;DHT22;11959;49.418;8.728;2022-11-12T08:45:36;7.10;99.90
23562;DHT22;11959;49.418;8.728;2022-11-12T08:48:05;7.20;99.90
23562;DHT22;11959;49.418;8.728;2022-11-12T08:50:32;7.10;99.90
23562;DHT22;11959;49.418;8.728;2022-11-12T08:52:59;7.10;99.90
23562;DHT22;11959;49.418;8.728;2022-11-12T08:55:27;7.20;99.90
23562;DHT22;11959;49.418;8.728;2022-11-12T08:57:52;7.30;99.90
23562;DHT22;11959;49.418;8.728;2022-11-12T09:00:18;7.30;99.90
23562;DHT22;11959;49.418;8.728;2022-11-12T09:02:44;7.40;99.90
23562;DHT22;11959;49.418;8.728;2022-11-12T09:05:10;7.50;99.90
23562;DHT22;11959;49.418;8.728;2022-11-12T09:07:35;7.60;99.90
23562;DHT22;11959;49.418;8.728;2022-11-12T09:10:01;7.60;99.90
23562;DHT22;11959;49.418;8.728;2022-11-12T09:12:27;7.60;99.90
23562;DHT22;11959;49.418;8.728;2022-11-12T09:14:52;7.70;99.90
23562;DHT22;11959;49.418;8.728;2022-11-12T09:17:18;7.70;99.90
23562;DHT22;11959;49.418;8.728;2022-11-12T09:19:44;7.70;99.90
23562;DHT22;11959;49.418;8.728;2022-11-12T09:22:09;7.70;99.90
23562;DHT22;11959;49.418;8.728;2022-11-12T09:24:35;7.70;99.90
23562;DHT22;11959;49.418;8.728;2022-11-12T09:27:01;7.70;99.90
23562;DHT22;11959;49.418;8.728;2022-11-12T09:29:26;7.70;99.90
23562;DHT22;11959;49.418;8.728;2022-11-12T09:31:53;7.80;99.90
23562;DHT22;11959;49.418;8.728;2022-11-12T09:34:18;7.80;99.90
23562;DHT22;11959;49.418;8.728;2022-11-12T09:36:44;7.80;99.90
23562;DHT22;11959;49.418;8.728;2022-11-12T09:39:10;7.90;99.90
23562;DHT22;11959;49.418;8.728;2022-11-12T09:41:41;7.90;99.90
23562;DHT22;11959;49.418;8.728;2022-11-12T09:44:20;8.00;99.90
23562;DHT22;11959;49.418;8.728;2022-11-12T09:46:56;8.00;99.90
23562;DHT22;11959;49.418;8.728;2022-11-12T09:49:42;8.00;99.90
23562;DHT22;11959;49.418;8.728;2022-11-12T09:52:22;8.00;99.90
23562;DHT22;11959;49.418;8.728;2022-11-12T09:54:54;8.00;99.90
23562;DHT22;11959;49.418;8.728;2022-11-12T09:57:22;8.00;99.90
23562;DHT22;11959;49.418;8.728;2022-11-12T09:59:47;8.00;99.90
23562;DHT22;11959;49.418;8.728;2022-11-12T10:07:26;8.00;99.90
23562;DHT22;11959;49.418;8.728;2022-11-12T10:10:02;8.10;99.90
23562;DHT22;11959;49.418;8.728;2022-11-12T10:15:31;8.10;99.90
23562;DHT22;11959;49.418;8.728;2022-11-12T10:23:50;8.20;99.90
23562;DHT22;11959;49.418;8.728;2022-11-12T10:26:18;8.20;99.90
23562;DHT22;11959;49.418;8.728;2022-11-12T10:28:48;8.20;99.90
23562;DHT22;11959;49.418;8.728;2022-11-12T10:31:20;8.20;99.90
23562;DHT22;11959;49.418;8.728;2022-11-12T10:33:46;8.30;99.90
23562;DHT22;11959;49.418;8.728;2022-11-12T10:36:22;8.30;99.90
23562;DHT22;11959;49.418;8.728;2022-11-12T10:38:52;8.30;99.90
23562;DHT22;11959;49.418;8.728;2022-11-12T10:41:24;8.30;99.90
23562;DHT22;11959;49.418;8.728;2022-11-12T10:44:03;8.30;99.90
23562;DHT22;11959;49.418;8.728;2022-11-12T10:46:35;8.40;99.90
23562;DHT22;11959;49.418;8.728;2022-11-12T10:49:06;8.40;99.90
23562;DHT22;11959;49.418;8.728;2022-11-12T10:51:36;8.30;99.90
23562;DHT22;11959;49.418;8.728;2022-11-12T10:54:25;8.30;99.90
23562;DHT22;11959;49.418;8.728;2022-11-12T10:56:52;8.40;99.90
23562;DHT22;11959;49.418;8.728;2022-11-12T10:59:23;8.40;99.90
23562;DHT22;11959;49.418;8.728;2022-11-12T11:01:59;8.40;99.90
23562;DHT22;11959;49.418;8.728;2022-11-12T11:04:34;8.50;99.90
23562;DHT22;11959;49.418;8.728;2022-11-12T11:07:22;8.50;99.90
23562;DHT22;11959;49.418;8.728;2022-11-12T11:09:56;8.60;99.90
23562;DHT22;11959;49.418;8.728;2022-11-12T11:12:33;8.60;99.90
23562;DHT22;11959;49.418;8.728;2022-11-12T11:17:36;8.60;99.90
23562;DHT22;11959;49.418;8.728;2022-11-12T11:20:04;8.60;99.90
23562;DHT22;11959;49.418;8.728;2022-11-12T11:22:45;8.70;99.90
23562;DHT22;11959;49.418;8.728;2022-11-12T11:25:32;8.70;99.90
23562;DHT22;11959;49.418;8.728;2022-11-12T11:31:14;8.70;99.90
23562;DHT22;11959;49.418;8.728;2022-11-12T12:00:34;8.90;99.90
23562;DHT22;11959;49.418;8.728;2022-11-12T12:14:34;9.00;99.90
23562;DHT22;11959;49.418;8.728;2022-11-12T12:20:13;9.00;99.90
23562;DHT22;11959;49.418;8.728;2022-11-12T12:22:50;9.00;99.90
23562;DHT22;11959;49.418;8.728;2022-11-12T12:25:25;9.00;99.90
23562;DHT22;11959;49.418;8.728;2022-11-12T12:28:53;8.90;99.90
23562;DHT22;11959;49.418;8.728;2022-11-12T12:31:04;8.90;99.90
23562;DHT22;11959;49.418;8.728;2022-11-12T12:33:51;8.90;99.90
23562;DHT22;11959;49.418;8.728;2022-11-12T12:44:10;8.90;99.90
23562;DHT22;11959;49.418;8.728;2022-11-12T12:46:41;8.90;99.90
23562;DHT22;11959;49.418;8.728;2022-11-12T12:49:15;8.90;99.90
23562;DHT22;11959;49.418;8.728;2022-11-12T12:51:41;8.90;99.90
23562;DHT22;11959;49.418;8.728;2022-11-12T12:57:02;8.90;99.90
23562;DHT22;11959;49.418;8.728;2022-11-12T12:59:28;8.80;99.90
23562;DHT22;11959;49.418;8.728;2022-11-12T13:01:59;8.80;99.90
23562;DHT22;11959;49.418;8.728;2022-11-12T13:04:48;8.80;99.90
23562;DHT22;11959;49.418;8.728;2022-11-12T13:07:14;8.90;99.90
23562;DHT22;11959;49.418;8.728;2022-11-12T13:09:40;8.90;99.90
23562;DHT22;11959;49.418;8.728;2022-11-12T13:12:08;8.90;99.90
23562;DHT22;11959;49.418;8.728;2022-11-12T13:19:36;8.80;99.90
23562;DHT22;11959;49.418;8.728;2022-11-12T13:25:05;8.80;99.90
23562;DHT22;11959;49.418;8.728;2022-11-12T13:42:57;8.70;99.90
23562;DHT22;11959;49.418;8.728;2022-11-12T13:45:27;8.60;99.90
23562;DHT22;11959;49.418;8.728;2022-11-12T13:47:53;8.60;99.90
23562;DHT22;11959;49.418;8.728;2022-11-12T13:50:21;8.60;99.90
23562;DHT22;11959;49.418;8.728;2022-11-12T13:52:48;8.60;99.90
23562;DHT22;11959;49.418;8.728;2022-11-12T13:55:16;8.50;99.90
23562;DHT22;11959;49.418;8.728;2022-11-12T13:57:50;8.50;99.90
23562;DHT22;11959;49.418;8.728;2022-11-12T14:00:27;8.50;99.90
23562;DHT22;11959;49.418;8.728;2022-11-12T14:03:05;8.40;99.90
23562;DHT22;11959;49.418;8.728;2022-11-12T14:05:32;8.40;99.90
23562;DHT22;11959;49.418;8.728;2022-11-12T14:08:50;8.50;99.90
23562;DHT22;11959;49.418;8.728;2022-11-12T14:13:59;8.50;99.90
23562;DHT22;11959;49.418;8.728;2022-11-12T14:16:34;8.60;99.90
23562;DHT22;11959;49.418;8.728;2022-11-12T14:19:15;8.50;99.90
23562;DHT22;11959;49.418;8.728;2022-11-12T14:22:17;8.50;99.90
23562;DHT22;11959;49.418;8.728;2022-11-12T14:24:42;8.60;99.90
23562;DHT22;11959;49.418;8.728;2022-11-12T14:32:37;8.60;99.90
23562;DHT22;11959;49.418;8.728;2022-11-12T14:35:27;8.60;99.90
23562;DHT22;11959;49.418;8.728;2022-11-12T14:40:29;8.60;99.90
23562;DHT22;11959;49.418;8.728;2022-11-12T14:42:56;8.50;99.90
23562;DHT22;11959;49.418;8.728;2022-11-12T14:45:22;8.50;99.90
23562;DHT22;11959;49.418;8.728;2022-11-12T14:47:50;8.60;99.90
23562;DHT22;11959;49.418;8.728;2022-11-12T14:50:27;8.60;99.90
23562;DHT22;11959;49.418;8.728;2022-11-12T14:53:10;8.60;99.90
23562;DHT22;11959;49.418;8.728;2022-11-12T14:55:39;8.60;99.90
23562;DHT22;11959;49.418;8.728;2022-11-12T14:58:06;8.60;99.90
23562;DHT22;11959;49.418;8.728;2022-11-12T15:00:44;8.60;99.90
23562;DHT22;11959;49.418;8.728;2022-11-12T15:03:14;8.60;99.90
23562;DHT22;11959;49.418;8.728;2022-11-12T15:08:38;8.60;99.90
23562;DHT22;11959;49.418;8.728;2022-11-12T15:13:43;8.50;99.90
23562;DHT22;11959;49.418;8.728;2022-11-12T15:16:15;8.40;99.90
23562;DHT22;11959;49.418;8.728;2022-11-12T15:18:42;8.40;99.90
23562;DHT22;11959;49.418;8.728;2022-11-12T15:21:24;8.40;99.90
23562;DHT22;11959;49.418;8.728;2022-11-12T15:26:40;8.40;99.90
23562;DHT22;11959;49.418;8.728;2022-11-12T15:29:14;8.30;99.90
23562;DHT22;11959;49.418;8.728;2022-11-12T15:31:48;8.30;99.90
23562;DHT22;11959;49.418;8.728;2022-11-12T15:34:43;8.30;99.90
23562;DHT22;11959;49.418;8.728;2022-11-12T15:39:49;8.20;99.90
23562;DHT22;11959;49.418;8.728;2022-11-12T15:44:46;8.10;99.90
23562;DHT22;11959;49.418;8.728;2022-11-12T15:47:18;8.10;99.90
23562;DHT22;11959;49.418;8.728;2022-11-12T15:49:55;8.10;99.90
23562;DHT22;11959;49.418;8.728;2022-11-12T15:52:22;8.10;99.90
23562;DHT22;11959;49.418;8.728;2022-11-12T15:54:47;8.10;99.90
23562;DHT22;11959;49.418;8.728;2022-11-12T15:57:20;8.10;99.90
23562;DHT22;11959;49.418;8.728;2022-11-12T15:59:59;8.10;99.90
23562;DHT22;11959;49.418;8.728;2022-11-12T16:02:25;8.10;99.90
23562;DHT22;11959;49.418;8.728;2022-11-12T16:04:51;8.10;99.90
23562;DHT22;11959;49.418;8.728;2022-11-12T16:07:17;8.00;99.90
23562;DHT22;11959;49.418;8.728;2022-11-12T16:09:43;8.10;99.90
23562;DHT22;11959;49.418;8.728;2022-11-12T16:12:12;8.10;99.90
23562;DHT22;11959;49.418;8.728;2022-11-12T16:14:39;8.10;99.90
23562;DHT22;11959;49.418;8.728;2022-11-12T16:17:10;8.00;99.90
23562;DHT22;11959;49.418;8.728;2022-11-12T16:19:36;8.00;99.90
23562;DHT22;11959;49.418;8.728;2022-11-12T16:22:02;8.00;99.90
23562;DHT22;11959;49.418;8.728;2022-11-12T16:24:28;8.00;99.90
23562;DHT22;11959;49.418;8.728;2022-11-12T16:26:54;8.00;99.90
23562;DHT22;11959;49.418;8.728;2022-11-12T16:29:20;8.00;99.90
23562;DHT22;11959;49.418;8.728;2022-11-12T16:31:46;7.90;99.90
23562;DHT22;11959;49.418;8.728;2022-11-12T16:34:11;8.00;99.90
23562;DHT22;11959;49.418;8.728;2022-11-12T16:36:38;8.00;99.90
23562;DHT22;11959;49.418;8.728;2022-11-12T16:39:04;7.90;99.90
23562;DHT22;11959;49.418;8.728;2022-11-12T16:41:30;7.90;99.90
23562;DHT22;11959;49.418;8.728;2022-11-12T16:43:56;7.90;99.90
23562;DHT22;11959;49.418;8.728;2022-11-12T16:46:40;7.90;99.90
23562;DHT22;11959;49.418;8.728;2022-11-12T16:49:11;7.90;99.90
23562;DHT22;11959;49.418;8.728;2022-11-12T16:51:37;7.90;99.90
23562;DHT22;11959;49.418;8.728;2022-11-12T16:54:03;7.90;99.90
23562;DHT22;11959;49.418;8.728;2022-11-12T16:56:29;7.80;99.90
23562;DHT22;11959;49.418;8.728;2022-11-12T16:58:55;7.90;99.90
23562;DHT22;11959;49.418;8.728;2022-11-12T17:01:26;7.90;99.90
23562;DHT22;11959;49.418;8.728;2022-11-12T17:03:53;7.80;99.90
23562;DHT22;11959;49.418;8.728;2022-11-12T17:06:22;7.80;99.90
23562;DHT22;11959;49.418;8.728;2022-11-12T17:08:52;7.80;99.90
23562;DHT22;11959;49.418;8.728;2022-11-12T17:11:18;7.80;99.90
23562;DHT22;11959;49.418;8.728;2022-11-12T17:13:44;7.80;99.90
23562;DHT22;11959;49.418;8.728;2022-11-12T17:16:10;7.80;99.90
23562;DHT22;11959;49.418;8.728;2022-11-12T17:18:36;7.80;99.90
23562;DHT22;11959;49.418;8.728;2022-11-12T17:21:15;7.90;99.90
23562;DHT22;11959;49.418;8.728;2022-11-12T17:23:42;7.90;99.90
23562;DHT22;11959;49.418;8.728;2022-11-12T17:26:18;7.90;99.90
23562;DHT22;11959;49.418;8.728;2022-11-12T17:28:45;7.90;99.90
23562;DHT22;11959;49.418;8.728;2022-11-12T17:31:16;7.80;99.90
23562;DHT22;11959;49.418;8.728;2022-11-12T17:33:47;7.80;99.90
23562;DHT22;11959;49.418;8.728;2022-11-12T17:36:15;7.80;99.90
23562;DHT22;11959;49.418;8.728;2022-11-12T17:38:41;7.80;99.90
23562;DHT22;11959;49.418;8.728;2022-11-12T17:41:08;7.80;99.90
23562;DHT22;11959;49.418;8.728;2022-11-12T17:43:35;7.80;99.90
23562;DHT22;11959;49.418;8.728;2022-11-12T17:46:01;7.80;99.90
23562;DHT22;11959;49.418;8.728;2022-11-12T17:48:29;7.80;99.90
23562;DHT22;11959;49.418;8.728;2022-11-12T17:51:06;7.80;99.90
23562;DHT22;11959;49.418;8.728;2022-11-12T17:53:33;7.80;99.90
23562;DHT22;11959;49.418;8.728;2022-11-12T17:56:01;7.80;99.90
23562;DHT22;11959;49.418;8.728;2022-11-12T17:58:27;7.80;99.90
23562;DHT22;11959;49.418;8.728;2022-11-12T18:00:53;7.80;99.90
23562;DHT22;11959;49.418;8.728;2022-11-12T18:03:18;7.80;99.90